sensor_id;sensor_type;location;lat;lon;timestamp;temperature;humidity
15717;DHT22;7960;50.908;4.204;2022-09-19T00:01:31;10.70;99.90
15717;DHT22;7960;50.908;4.204;2022-09-19T00:04:02;10.70;99.90
15717;DHT22;7960;50.908;4.204;2022-09-19T00:06:30;10.70;99.90
15717;DHT22;7960;50.908;4.204;2022-09-19T00:08:59;10.70;99.90
15717;DHT22;7960;50.908;4.204;2022-09-19T00:11:26;10.70;99.90
15717;DHT22;7960;50.908;4.204;2022-09-19T00:13:54;10.60;99.90
15717;DHT22;7960;50.908;4.204;2022-09-19T00:16:25;10.50;99.90
15717;DHT22;7960;50.908;4.204;2022-09-19T00:18:54;10.40;99.90
15717;DHT22;7960;50.908;4.204;2022-09-19T00:21:24;10.40;99.90
15717;DHT22;7960;50.908;4.204;2022-09-19T00:23:51;10.30;99.90
15717;DHT22;7960;50.908;4.204;2022-09-19T00:26:36;10.30;99.90
15717;DHT22;7960;50.908;4.204;2022-09-19T00:29:05;10.20;99.90
15717;DHT22;7960;50.908;4.204;2022-09-19T00:31:33;10.30;99.90
15717;DHT22;7960;50.908;4.204;2022-09-19T00:34:00;10.40;99.90
15717;DHT22;7960;50.908;4.204;2022-09-19T00:36:32;10.40;99.90
15717;DHT22;7960;50.908;4.204;2022-09-19T00:38:59;10.30;99.90
15717;DHT22;7960;50.908;4.204;2022-09-19T00:41:26;10.40;99.90
15717;DHT22;7960;50.908;4.204;2022-09-19T00:43:54;10.40;99.90
15717;DHT22;7960;50.908;4.204;2022-09-19T00:46:22;10.50;99.90
15717;DHT22;7960;50.908;4.204;2022-09-19T00:48:51;10.60;99.90
15717;DHT22;7960;50.908;4.204;2022-09-19T00:51:25;10.60;99.90
15717;DHT22;7960;50.908;4.204;2022-09-19T00:54:00;10.60;99.90
15717;DHT22;7960;50.908;4.204;2022-09-19T00:56:28;10.50;99.90
15717;DHT22;7960;50.908;4.204;2022-09-19T00:58:56;10.50;99.90
15717;DHT22;7960;50.908;4.204;2022-09-19T01:01:24;10.50;99.90
15717;DHT22;7960;50.908;4.204;2022-09-19T01:03:51;10.50;99.90
15717;DHT22;7960;50.908;4.204;2022-09-19T01:06:37;10.60;99.90
15717;DHT22;7960;50.908;4.204;2022-09-19T01:09:24;10.40;99.90
15717;DHT22;7960;50.908;4.204;2022-09-19T01:12:07;10.50;99.90
15717;DHT22;7960;50.908;4.204;2022-09-19T01:17:36;10.50;99.90
15717;DHT22;7960;50.908;4.204;2022-09-19T01:23:43;10.60;99.90
15717;DHT22;7960;50.908;4.204;2022-09-19T01:26:27;10.60;99.90
15717;DHT22;7960;50.908;4.204;2022-09-19T01:29:02;10.50;99.90
15717;DHT22;7960;50.908;4.204;2022-09-19T01:31:35;10.50;99.90
15717;DHT22;7960;50.908;4.204;2022-09-19T01:34:06;10.60;99.90
15717;DHT22;7960;50.908;4.204;2022-09-19T01:36:38;10.50;99.90
15717;DHT22;7960;50.908;4.204;2022-09-19T01:39:07;10.50;99.90
15717;DHT22;7960;50.908;4.204;2022-09-19T01:41:35;10.50;99.90
15717;DHT22;7960;50.908;4.204;2022-09-19T01:44:04;10.60;99.90
15717;DHT22;7960;50.908;4.204;2022-09-19T01:46:40;10.50;99.90
15717;DHT22;7960;50.908;4.204;2022-09-19T01:49:20;10.50;99.90
15717;DHT22;7960;50.908;4.204;2022-09-19T01:51:58;10.50;99.90
15717;DHT22;7960;50.908;4.204;2022-09-19T01:54:37;10.40;99.90
15717;DHT22;7960;50.908;4.204;2022-09-19T01:57:16;10.40;99.90
15717;DHT22;7960;50.908;4.204;2022-09-19T01:59:59;10.40;99.90
15717;DHT22;7960;50.908;4.204;2022-09-19T02:02:31;10.30;99.90
15717;DHT22;7960;50.908;4.204;2022-09-19T02:05:07;10.30;99.90
15717;DHT22;7960;50.908;4.204;2022-09-19T02:07:39;10.20;99.90
15717;DHT22;7960;50.908;4.204;2022-09-19T02:10:10;10.20;99.90
15717;DHT22;7960;50.908;4.204;2022-09-19T02:12:40;10.20;99.90
15717;DHT22;7960;50.908;4.204;2022-09-19T02:15:12;10.20;99.90
15717;DHT22;7960;50.908;4.204;2022-09-19T02:17:43;10.20;99.90
15717;DHT22;7960;50.908;4.204;2022-09-19T02:20:20;10.10;99.90
15717;DHT22;7960;50.908;4.204;2022-09-19T02:22:52;10.00;99.90
15717;DHT22;7960;50.908;4.204;2022-09-19T02:25:23;10.10;99.90
15717;DHT22;7960;50.908;4.204;2022-09-19T02:27:55;10.10;99.90
15717;DHT22;7960;50.908;4.204;2022-09-19T02:30:25;10.10;99.90
15717;DHT22;7960;50.908;4.204;2022-09-19T02:32:52;10.00;99.90
15717;DHT22;7960;50.908;4.204;2022-09-19T02:35:24;10.00;99.90
15717;DHT22;7960;50.908;4.204;2022-09-19T02:38:07;10.00;99.90
15717;DHT22;7960;50.908;4.204;2022-09-19T02:40:43;9.90;99.90
15717;DHT22;7960;50.908;4.204;2022-09-19T02:43:19;9.80;99.90
15717;DHT22;7960;50.908;4.204;2022-09-19T02:45:51;9.90;99.90
15717;DHT22;7960;50.908;4.204;2022-09-19T02:48:26;9.80;99.90
15717;DHT22;7960;50.908;4.204;2022-09-19T02:50:58;9.90;99.90
15717;DHT22;7960;50.908;4.204;2022-09-19T02:53:31;10.00;99.90
15717;DHT22;7960;50.908;4.204;2022-09-19T02:56:01;9.90;99.90
15717;DHT22;7960;50.908;4.204;2022-09-19T02:58:32;9.90;99.90
15717;DHT22;7960;50.908;4.204;2022-09-19T03:01:05;9.90;99.90
15717;DHT22;7960;50.908;4.204;2022-09-19T03:03:37;10.00;99.90
15717;DHT22;7960;50.908;4.204;2022-09-19T03:06:27;9.80;99.90
15717;DHT22;7960;50.908;4.204;2022-09-19T03:08:56;9.90;99.90
15717;DHT22;7960;50.908;4.204;2022-09-19T03:11:27;9.80;99.90
15717;DHT22;7960;50.908;4.204;2022-09-19T03:13:59;9.80;99.90
15717;DHT22;7960;50.908;4.204;2022-09-19T03:16:30;9.90;99.90
15717;DHT22;7960;50.908;4.204;2022-09-19T03:19:01;9.90;99.90
15717;DHT22;7960;50.908;4.204;2022-09-19T03:21:28;9.90;99.90
15717;DHT22;7960;50.908;4.204;2022-09-19T03:23:56;9.90;99.90
15717;DHT22;7960;50.908;4.204;2022-09-19T03:26:26;10.10;99.90
15717;DHT22;7960;50.908;4.204;2022-09-19T03:28:57;10.00;99.90
15717;DHT22;7960;50.908;4.204;2022-09-19T03:31:24;10.00;99.90
15717;DHT22;7960;50.908;4.204;2022-09-19T03:33:53;10.00;99.90
15717;DHT22;7960;50.908;4.204;2022-09-19T03:36:21;10.00;99.90
15717;DHT22;7960;50.908;4.204;2022-09-19T03:38:48;9.80;99.90
15717;DHT22;7960;50.908;4.204;2022-09-19T03:41:17;10.00;99.90
15717;DHT22;7960;50.908;4.204;2022-09-19T03:43:44;9.90;99.90
15717;DHT22;7960;50.908;4.204;2022-09-19T03:46:12;10.10;99.90
15717;DHT22;7960;50.908;4.204;2022-09-19T03:48:40;10.00;99.90
15717;DHT22;7960;50.908;4.204;2022-09-19T03:51:11;10.00;99.90
15717;DHT22;7960;50.908;4.204;2022-09-19T03:53:38;10.20;99.90
15717;DHT22;7960;50.908;4.204;2022-09-19T03:56:06;10.30;99.90
15717;DHT22;7960;50.908;4.204;2022-09-19T03:58:33;10.30;99.90
15717;DHT22;7960;50.908;4.204;2022-09-19T04:01:00;10.10;99.90
15717;DHT22;7960;50.908;4.204;2022-09-19T04:03:27;10.00;99.90
15717;DHT22;7960;50.908;4.204;2022-09-19T04:05:54;10.00;99.90
15717;DHT22;7960;50.908;4.204;2022-09-19T04:08:22;10.00;99.90
15717;DHT22;7960;50.908;4.204;2022-09-19T04:10:49;10.00;99.90
15717;DHT22;7960;50.908;4.204;2022-09-19T04:13:16;10.00;99.90
15717;DHT22;7960;50.908;4.204;2022-09-19T04:15:46;10.00;99.90
15717;DHT22;7960;50.908;4.204;2022-09-19T04:18:13;9.90;99.90
15717;DHT22;7960;50.908;4.204;2022-09-19T04:20:40;9.80;99.90
15717;DHT22;7960;50.908;4.204;2022-09-19T04:23:07;10.00;99.90
15717;DHT22;7960;50.908;4.204;2022-09-19T04:25:35;9.90;99.90
15717;DHT22;7960;50.908;4.204;2022-09-19T04:28:03;9.80;99.90
15717;DHT22;7960;50.908;4.204;2022-09-19T04:30:31;9.70;99.90
15717;DHT22;7960;50.908;4.204;2022-09-19T04:32:58;9.70;99.90
15717;DHT22;7960;50.908;4.204;2022-09-19T04:35:26;9.60;99.90
15717;DHT22;7960;50.908;4.204;2022-09-19T04:37:53;9.60;99.90
15717;DHT22;7960;50.908;4.204;2022-09-19T04:40:20;9.50;99.90
15717;DHT22;7960;50.908;4.204;2022-09-19T04:42:48;9.50;99.90
15717;DHT22;7960;50.908;4.204;2022-09-19T04:45:15;9.50;99.90
15717;DHT22;7960;50.908;4.204;2022-09-19T04:47:46;9.40;99.90
15717;DHT22;7960;50.908;4.204;2022-09-19T04:50:13;9.50;99.90
15717;DHT22;7960;50.908;4.204;2022-09-19T04:52:40;9.80;99.90
15717;DHT22;7960;50.908;4.204;2022-09-19T04:55:09;9.90;99.90
15717;DHT22;7960;50.908;4.204;2022-09-19T04:57:36;9.90;99.90
15717;DHT22;7960;50.908;4.204;2022-09-19T05:00:05;10.00;99.90
15717;DHT22;7960;50.908;4.204;2022-09-19T05:02:32;10.10;99.90
15717;DHT22;7960;50.908;4.204;2022-09-19T05:05:00;10.20;99.90
15717;DHT22;7960;50.908;4.204;2022-09-19T05:07:27;10.20;99.90
15717;DHT22;7960;50.908;4.204;2022-09-19T05:09:58;10.20;99.90
15717;DHT22;7960;50.908;4.204;2022-09-19T05:12:25;10.20;99.90
15717;DHT22;7960;50.908;4.204;2022-09-19T05:14:53;10.20;99.90
15717;DHT22;7960;50.908;4.204;2022-09-19T05:17:21;10.30;99.90
15717;DHT22;7960;50.908;4.204;2022-09-19T05:19:48;10.30;99.90
15717;DHT22;7960;50.908;4.204;2022-09-19T05:22:15;10.30;99.90
15717;DHT22;7960;50.908;4.204;2022-09-19T05:24:42;10.20;99.90
15717;DHT22;7960;50.908;4.204;2022-09-19T05:27:09;10.30;99.90
15717;DHT22;7960;50.908;4.204;2022-09-19T05:29:37;10.20;99.90
15717;DHT22;7960;50.908;4.204;2022-09-19T05:32:05;10.10;99.90
15717;DHT22;7960;50.908;4.204;2022-09-19T05:34:33;10.10;99.90
15717;DHT22;7960;50.908;4.204;2022-09-19T05:37:00;10.00;99.90
15717;DHT22;7960;50.908;4.204;2022-09-19T05:39:27;10.00;99.90
15717;DHT22;7960;50.908;4.204;2022-09-19T05:41:53;9.90;99.90
15717;DHT22;7960;50.908;4.204;2022-09-19T05:44:20;10.00;99.90
15717;DHT22;7960;50.908;4.204;2022-09-19T05:46:48;10.00;99.90
15717;DHT22;7960;50.908;4.204;2022-09-19T05:49:16;10.10;99.90
15717;DHT22;7960;50.908;4.204;2022-09-19T05:51:45;10.10;99.90
15717;DHT22;7960;50.908;4.204;2022-09-19T05:54:11;10.10;99.90
15717;DHT22;7960;50.908;4.204;2022-09-19T05:56:37;9.90;99.90
15717;DHT22;7960;50.908;4.204;2022-09-19T05:59:05;9.90;99.90
15717;DHT22;7960;50.908;4.204;2022-09-19T06:01:31;10.00;99.90
15717;DHT22;7960;50.908;4.204;2022-09-19T06:03:58;9.90;99.90
15717;DHT22;7960;50.908;4.204;2022-09-19T06:06:27;9.80;99.90
15717;DHT22;7960;50.908;4.204;2022-09-19T06:08:56;10.00;99.90
15717;DHT22;7960;50.908;4.204;2022-09-19T06:11:24;10.00;99.90
15717;DHT22;7960;50.908;4.204;2022-09-19T06:13:51;10.10;99.90
15717;DHT22;7960;50.908;4.204;2022-09-19T06:16:36;10.20;99.90
15717;DHT22;7960;50.908;4.204;2022-09-19T06:19:03;10.40;99.90
15717;DHT22;7960;50.908;4.204;2022-09-19T06:21:31;10.40;99.90
15717;DHT22;7960;50.908;4.204;2022-09-19T06:23:59;10.40;99.90
15717;DHT22;7960;50.908;4.204;2022-09-19T06:26:27;10.40;99.90
15717;DHT22;7960;50.908;4.204;2022-09-19T06:28:54;10.40;99.90
15717;DHT22;7960;50.908;4.204;2022-09-19T06:31:21;10.50;99.90
15717;DHT22;7960;50.908;4.204;2022-09-19T06:33:48;10.60;99.90
15717;DHT22;7960;50.908;4.204;2022-09-19T06:36:14;10.60;99.90
15717;DHT22;7960;50.908;4.204;2022-09-19T06:38:42;10.60;99.90
15717;DHT22;7960;50.908;4.204;2022-09-19T06:41:10;10.70;99.90
15717;DHT22;7960;50.908;4.204;2022-09-19T06:43:38;10.80;99.90
15717;DHT22;7960;50.908;4.204;2022-09-19T06:46:05;10.90;99.90
15717;DHT22;7960;50.908;4.204;2022-09-19T06:48:32;10.90;99.90
15717;DHT22;7960;50.908;4.204;2022-09-19T06:51:01;10.90;99.90
15717;DHT22;7960;50.908;4.204;2022-09-19T06:53:28;11.00;99.90
15717;DHT22;7960;50.908;4.204;2022-09-19T06:55:56;11.00;99.90
15717;DHT22;7960;50.908;4.204;2022-09-19T06:58:24;11.00;99.90
15717;DHT22;7960;50.908;4.204;2022-09-19T07:00:52;11.00;99.90
15717;DHT22;7960;50.908;4.204;2022-09-19T07:03:19;11.10;99.90
15717;DHT22;7960;50.908;4.204;2022-09-19T07:05:46;11.10;99.90
15717;DHT22;7960;50.908;4.204;2022-09-19T07:08:14;11.10;99.90
15717;DHT22;7960;50.908;4.204;2022-09-19T07:10:41;11.10;99.90
15717;DHT22;7960;50.908;4.204;2022-09-19T07:13:09;11.10;99.90
15717;DHT22;7960;50.908;4.204;2022-09-19T07:15:41;11.20;99.90
15717;DHT22;7960;50.908;4.204;2022-09-19T07:18:08;11.20;99.90
15717;DHT22;7960;50.908;4.204;2022-09-19T07:20:36;11.20;99.90
15717;DHT22;7960;50.908;4.204;2022-09-19T07:23:05;11.20;99.90
15717;DHT22;7960;50.908;4.204;2022-09-19T07:25:33;11.30;99.90
15717;DHT22;7960;50.908;4.204;2022-09-19T07:28:01;11.40;99.90
15717;DHT22;7960;50.908;4.204;2022-09-19T07:30:29;11.40;99.90
15717;DHT22;7960;50.908;4.204;2022-09-19T07:33:00;11.50;99.90
15717;DHT22;7960;50.908;4.204;2022-09-19T07:35:29;11.60;99.90
15717;DHT22;7960;50.908;4.204;2022-09-19T07:37:56;11.60;99.90
15717;DHT22;7960;50.908;4.204;2022-09-19T07:40:23;11.80;99.90
15717;DHT22;7960;50.908;4.204;2022-09-19T07:42:50;12.00;99.90
15717;DHT22;7960;50.908;4.204;2022-09-19T07:45:18;12.00;99.90
15717;DHT22;7960;50.908;4.204;2022-09-19T07:47:46;12.10;99.90
15717;DHT22;7960;50.908;4.204;2022-09-19T07:50:16;12.30;99.90
15717;DHT22;7960;50.908;4.204;2022-09-19T07:52:44;12.30;99.90
15717;DHT22;7960;50.908;4.204;2022-09-19T07:55:12;12.40;99.90
15717;DHT22;7960;50.908;4.204;2022-09-19T07:57:48;12.40;99.90
15717;DHT22;7960;50.908;4.204;2022-09-19T08:00:16;12.50;99.90
15717;DHT22;7960;50.908;4.204;2022-09-19T08:02:43;12.40;99.90
15717;DHT22;7960;50.908;4.204;2022-09-19T08:05:10;12.40;99.90
15717;DHT22;7960;50.908;4.204;2022-09-19T08:07:38;12.50;99.90
15717;DHT22;7960;50.908;4.204;2022-09-19T08:10:05;12.50;99.90
15717;DHT22;7960;50.908;4.204;2022-09-19T08:12:33;12.60;99.90
15717;DHT22;7960;50.908;4.204;2022-09-19T08:15:00;12.70;99.90
15717;DHT22;7960;50.908;4.204;2022-09-19T08:17:27;12.80;99.90
15717;DHT22;7960;50.908;4.204;2022-09-19T08:19:53;12.80;99.90
15717;DHT22;7960;50.908;4.204;2022-09-19T08:22:21;13.00;99.90
15717;DHT22;7960;50.908;4.204;2022-09-19T08:24:50;13.00;99.90
15717;DHT22;7960;50.908;4.204;2022-09-19T08:27:17;13.00;99.90
15717;DHT22;7960;50.908;4.204;2022-09-19T08:29:44;13.10;99.90
15717;DHT22;7960;50.908;4.204;2022-09-19T08:32:11;13.30;99.90
15717;DHT22;7960;50.908;4.204;2022-09-19T08:34:38;13.30;99.90
15717;DHT22;7960;50.908;4.204;2022-09-19T08:37:05;13.20;99.90
15717;DHT22;7960;50.908;4.204;2022-09-19T08:39:32;13.20;99.90
15717;DHT22;7960;50.908;4.204;2022-09-19T08:42:08;13.10;99.90
15717;DHT22;7960;50.908;4.204;2022-09-19T08:44:52;13.20;99.90
15717;DHT22;7960;50.908;4.204;2022-09-19T08:47:22;13.30;99.90
15717;DHT22;7960;50.908;4.204;2022-09-19T08:49:52;13.40;99.90
15717;DHT22;7960;50.908;4.204;2022-09-19T08:52:29;13.50;99.90
15717;DHT22;7960;50.908;4.204;2022-09-19T08:54:58;13.50;99.90
15717;DHT22;7960;50.908;4.204;2022-09-19T08:57:31;13.50;99.90
15717;DHT22;7960;50.908;4.204;2022-09-19T09:00:03;13.70;99.90
15717;DHT22;7960;50.908;4.204;2022-09-19T09:02:38;13.90;99.90
15717;DHT22;7960;50.908;4.204;2022-09-19T09:05:12;14.20;99.90
15717;DHT22;7960;50.908;4.204;2022-09-19T09:07:48;14.40;99.90
15717;DHT22;7960;50.908;4.204;2022-09-19T09:10:33;14.50;99.90
15717;DHT22;7960;50.908;4.204;2022-09-19T09:13:08;14.60;99.90
15717;DHT22;7960;50.908;4.204;2022-09-19T09:15:48;14.70;99.90
15717;DHT22;7960;50.908;4.204;2022-09-19T09:21:30;14.60;99.90
15717;DHT22;7960;50.908;4.204;2022-09-19T09:24:02;14.70;99.90
15717;DHT22;7960;50.908;4.204;2022-09-19T09:26:31;14.60;99.90
15717;DHT22;7960;50.908;4.204;2022-09-19T09:29:11;14.60;99.90
15717;DHT22;7960;50.908;4.204;2022-09-19T09:31:43;14.70;99.90
15717;DHT22;7960;50.908;4.204;2022-09-19T09:34:16;14.40;99.90
15717;DHT22;7960;50.908;4.204;2022-09-19T09:36:48;14.40;99.90
15717;DHT22;7960;50.908;4.204;2022-09-19T09:39:20;14.60;99.90
15717;DHT22;7960;50.908;4.204;2022-09-19T09:41:51;15.10;99.90
15717;DHT22;7960;50.908;4.204;2022-09-19T09:44:31;15.50;99.90
15717;DHT22;7960;50.908;4.204;2022-09-19T09:47:04;15.70;99.90
15717;DHT22;7960;50.908;4.204;2022-09-19T09:49:31;16.10;99.90
15717;DHT22;7960;50.908;4.204;2022-09-19T09:52:12;16.30;99.90
15717;DHT22;7960;50.908;4.204;2022-09-19T09:54:52;16.20;99.90
15717;DHT22;7960;50.908;4.204;2022-09-19T09:57:44;16.30;99.90
15717;DHT22;7960;50.908;4.204;2022-09-19T10:00:15;16.40;99.90
15717;DHT22;7960;50.908;4.204;2022-09-19T10:03:06;16.70;99.90
15717;DHT22;7960;50.908;4.204;2022-09-19T10:05:58;16.90;99.90
15717;DHT22;7960;50.908;4.204;2022-09-19T10:08:30;16.60;99.90
15717;DHT22;7960;50.908;4.204;2022-09-19T10:11:08;16.50;99.90
15717;DHT22;7960;50.908;4.204;2022-09-19T10:13:40;16.70;99.90
15717;DHT22;7960;50.908;4.204;2022-09-19T10:16:15;16.50;99.90
15717;DHT22;7960;50.908;4.204;2022-09-19T10:18:49;16.60;99.90
15717;DHT22;7960;50.908;4.204;2022-09-19T10:21:16;16.60;99.90
15717;DHT22;7960;50.908;4.204;2022-09-19T10:23:43;16.40;99.90
15717;DHT22;7960;50.908;4.204;2022-09-19T10:26:13;16.20;99.90
15717;DHT22;7960;50.908;4.204;2022-09-19T10:28:48;16.10;99.90
15717;DHT22;7960;50.908;4.204;2022-09-19T10:31:28;16.10;99.90
15717;DHT22;7960;50.908;4.204;2022-09-19T10:33:56;16.00;99.90
15717;DHT22;7960;50.908;4.204;2022-09-19T10:36:30;15.80;99.90
15717;DHT22;7960;50.908;4.204;2022-09-19T10:39:00;15.70;99.90
15717;DHT22;7960;50.908;4.204;2022-09-19T10:41:30;15.70;99.90
15717;DHT22;7960;50.908;4.204;2022-09-19T10:43:59;15.60;99.90
15717;DHT22;7960;50.908;4.204;2022-09-19T10:46:29;15.60;99.90
15717;DHT22;7960;50.908;4.204;2022-09-19T10:49:03;15.50;99.90
15717;DHT22;7960;50.908;4.204;2022-09-19T10:51:34;15.40;99.90
15717;DHT22;7960;50.908;4.204;2022-09-19T10:54:08;15.30;99.90
15717;DHT22;7960;50.908;4.204;2022-09-19T10:56:39;15.30;99.90
15717;DHT22;7960;50.908;4.204;2022-09-19T10:59:16;15.30;99.90
15717;DHT22;7960;50.908;4.204;2022-09-19T11:02:04;15.40;99.90
15717;DHT22;7960;50.908;4.204;2022-09-19T11:04:35;15.40;99.90
15717;DHT22;7960;50.908;4.204;2022-09-19T11:07:11;15.30;99.90
15717;DHT22;7960;50.908;4.204;2022-09-19T11:09:39;15.40;99.90
15717;DHT22;7960;50.908;4.204;2022-09-19T11:12:10;15.50;99.90
15717;DHT22;7960;50.908;4.204;2022-09-19T11:14:40;15.40;99.90
15717;DHT22;7960;50.908;4.204;2022-09-19T11:17:21;15.50;99.90
15717;DHT22;7960;50.908;4.204;2022-09-19T11:20:18;15.60;99.90
15717;DHT22;7960;50.908;4.204;2022-09-19T11:23:10;15.60;99.90
15717;DHT22;7960;50.908;4.204;2022-09-19T11:25:47;15.60;99.90
15717;DHT22;7960;50.908;4.204;2022-09-19T11:28:23;15.60;99.90
15717;DHT22;7960;50.908;4.204;2022-09-19T11:31:00;15.70;99.90
15717;DHT22;7960;50.908;4.204;2022-09-19T11:33:41;15.80;99.90
15717;DHT22;7960;50.908;4.204;2022-09-19T11:36:18;15.90;99.90
15717;DHT22;7960;50.908;4.204;2022-09-19T11:38:54;16.00;99.90
15717;DHT22;7960;50.908;4.204;2022-09-19T11:41:33;15.90;99.90
15717;DHT22;7960;50.908;4.204;2022-09-19T11:44:11;16.10;99.90
15717;DHT22;7960;50.908;4.204;2022-09-19T11:46:46;16.30;99.90
15717;DHT22;7960;50.908;4.204;2022-09-19T11:49:37;16.40;99.90
15717;DHT22;7960;50.908;4.204;2022-09-19T11:52:17;16.50;99.90
15717;DHT22;7960;50.908;4.204;2022-09-19T11:55:12;16.60;99.90
15717;DHT22;7960;50.908;4.204;2022-09-19T11:57:45;16.60;99.90
15717;DHT22;7960;50.908;4.204;2022-09-19T12:00:16;16.70;99.90
15717;DHT22;7960;50.908;4.204;2022-09-19T12:02:55;16.70;99.90
15717;DHT22;7960;50.908;4.204;2022-09-19T12:05:30;16.70;99.90
15717;DHT22;7960;50.908;4.204;2022-09-19T12:08:13;16.60;99.90
15717;DHT22;7960;50.908;4.204;2022-09-19T12:10:45;16.50;99.90
15717;DHT22;7960;50.908;4.204;2022-09-19T12:13:19;16.40;99.90
15717;DHT22;7960;50.908;4.204;2022-09-19T12:15:50;16.40;99.90
15717;DHT22;7960;50.908;4.204;2022-09-19T12:18:21;16.40;99.90
15717;DHT22;7960;50.908;4.204;2022-09-19T12:20:52;16.80;99.90
15717;DHT22;7960;50.908;4.204;2022-09-19T12:23:24;17.10;99.90
15717;DHT22;7960;50.908;4.204;2022-09-19T12:26:11;17.10;99.90
15717;DHT22;7960;50.908;4.204;2022-09-19T12:28:42;17.10;99.90
15717;DHT22;7960;50.908;4.204;2022-09-19T12:31:11;17.10;99.90
15717;DHT22;7960;50.908;4.204;2022-09-19T12:33:46;17.10;99.90
15717;DHT22;7960;50.908;4.204;2022-09-19T12:36:20;17.00;99.90
15717;DHT22;7960;50.908;4.204;2022-09-19T12:38:54;17.60;99.90
15717;DHT22;7960;50.908;4.204;2022-09-19T12:41:29;18.20;99.90
15717;DHT22;7960;50.908;4.204;2022-09-19T12:44:04;18.40;99.90
15717;DHT22;7960;50.908;4.204;2022-09-19T12:46:43;18.60;99.90
15717;DHT22;7960;50.908;4.204;2022-09-19T12:49:21;19.10;99.90
15717;DHT22;7960;50.908;4.204;2022-09-19T12:51:56;19.60;99.90
15717;DHT22;7960;50.908;4.204;2022-09-19T12:54:32;20.10;99.90
15717;DHT22;7960;50.908;4.204;2022-09-19T12:57:03;19.90;99.90
15717;DHT22;7960;50.908;4.204;2022-09-19T12:59:32;19.50;99.90
15717;DHT22;7960;50.908;4.204;2022-09-19T13:02:11;19.10;99.90
15717;DHT22;7960;50.908;4.204;2022-09-19T13:04:43;18.90;99.90
15717;DHT22;7960;50.908;4.204;2022-09-19T13:07:18;18.60;99.90
15717;DHT22;7960;50.908;4.204;2022-09-19T13:09:55;18.60;99.90
15717;DHT22;7960;50.908;4.204;2022-09-19T13:12:32;18.90;99.90
15717;DHT22;7960;50.908;4.204;2022-09-19T13:15:04;18.90;99.90
15717;DHT22;7960;50.908;4.204;2022-09-19T13:17:38;19.20;99.90
15717;DHT22;7960;50.908;4.204;2022-09-19T13:20:28;19.20;99.90
15717;DHT22;7960;50.908;4.204;2022-09-19T13:23:16;19.30;99.90
15717;DHT22;7960;50.908;4.204;2022-09-19T13:26:29;19.60;99.90
15717;DHT22;7960;50.908;4.204;2022-09-19T13:29:03;19.80;99.90
15717;DHT22;7960;50.908;4.204;2022-09-19T13:31:58;20.20;99.90
15717;DHT22;7960;50.908;4.204;2022-09-19T13:34:39;19.90;99.80
15717;DHT22;7960;50.908;4.204;2022-09-19T13:37:46;19.20;99.90
15717;DHT22;7960;50.908;4.204;2022-09-19T13:40:36;18.70;99.90
15717;DHT22;7960;50.908;4.204;2022-09-19T13:43:19;18.80;99.90
15717;DHT22;7960;50.908;4.204;2022-09-19T13:45:50;18.60;99.90
15717;DHT22;7960;50.908;4.204;2022-09-19T13:48:31;18.60;99.90
15717;DHT22;7960;50.908;4.204;2022-09-19T13:51:03;18.60;99.90
15717;DHT22;7960;50.908;4.204;2022-09-19T13:53:35;18.90;99.90
15717;DHT22;7960;50.908;4.204;2022-09-19T13:56:11;19.40;99.80
15717;DHT22;7960;50.908;4.204;2022-09-19T13:58:45;19.30;99.40
15717;DHT22;7960;50.908;4.204;2022-09-19T14:01:17;19.20;99.60
15717;DHT22;7960;50.908;4.204;2022-09-19T14:03:53;18.90;99.40
15717;DHT22;7960;50.908;4.204;2022-09-19T14:06:25;18.80;99.10
15717;DHT22;7960;50.908;4.204;2022-09-19T14:09:14;18.60;99.00
15717;DHT22;7960;50.908;4.204;2022-09-19T14:11:44;19.70;98.50
15717;DHT22;7960;50.908;4.204;2022-09-19T14:17:26;20.30;96.40
15717;DHT22;7960;50.908;4.204;2022-09-19T21:46:01;13.00;99.90
